sensor_id;sensor_type;location;lat;lon;timestamp;P1;durP1;ratioP1;P2;durP2;ratioP2
27985;SDS011;15453;53.692;10.168;2023-03-25T00:02:13;5.32;;;2.60;;
27985;SDS011;15453;53.692;10.168;2023-03-25T00:04:39;6.10;;;2.78;;
27985;SDS011;15453;53.692;10.168;2023-03-25T00:07:05;6.15;;;2.80;;
27985;SDS011;15453;53.692;10.168;2023-03-25T00:09:30;6.30;;;3.42;;
27985;SDS011;15453;53.692;10.168;2023-03-25T00:11:56;6.75;;;3.05;;
27985;SDS011;15453;53.692;10.168;2023-03-25T00:14:22;7.65;;;3.40;;
27985;SDS011;15453;53.692;10.168;2023-03-25T00:16:49;4.50;;;3.20;;
27985;SDS011;15453;53.692;10.168;2023-03-25T00:19:16;6.20;;;3.10;;
27985;SDS011;15453;53.692;10.168;2023-03-25T00:21:46;8.52;;;3.28;;
27985;SDS011;15453;53.692;10.168;2023-03-25T00:24:14;10.13;;;3.75;;
27985;SDS011;15453;53.692;10.168;2023-03-25T00:26:42;5.00;;;3.00;;
27985;SDS011;15453;53.692;10.168;2023-03-25T00:29:08;7.28;;;3.28;;
27985;SDS011;15453;53.692;10.168;2023-03-25T00:31:33;5.72;;;3.25;;
27985;SDS011;15453;53.692;10.168;2023-03-25T00:33:59;7.47;;;3.75;;
27985;SDS011;15453;53.692;10.168;2023-03-25T00:36:24;9.82;;;3.47;;
27985;SDS011;15453;53.692;10.168;2023-03-25T00:38:49;7.28;;;3.10;;
27985;SDS011;15453;53.692;10.168;2023-03-25T00:41:16;7.50;;;3.22;;
27985;SDS011;15453;53.692;10.168;2023-03-25T00:43:56;8.50;;;3.22;;
27985;SDS011;15453;53.692;10.168;2023-03-25T00:46:23;5.70;;;3.00;;
27985;SDS011;15453;53.692;10.168;2023-03-25T00:48:53;9.80;;;3.30;;
27985;SDS011;15453;53.692;10.168;2023-03-25T00:51:20;8.02;;;3.20;;
27985;SDS011;15453;53.692;10.168;2023-03-25T00:53:49;7.43;;;3.75;;
27985;SDS011;15453;53.692;10.168;2023-03-25T00:56:19;8.68;;;4.32;;
27985;SDS011;15453;53.692;10.168;2023-03-25T00:58:45;5.25;;;3.15;;
27985;SDS011;15453;53.692;10.168;2023-03-25T01:01:11;9.70;;;3.78;;
27985;SDS011;15453;53.692;10.168;2023-03-25T01:03:41;8.15;;;3.85;;
27985;SDS011;15453;53.692;10.168;2023-03-25T01:06:11;6.38;;;3.20;;
27985;SDS011;15453;53.692;10.168;2023-03-25T01:08:38;6.32;;;3.85;;
27985;SDS011;15453;53.692;10.168;2023-03-25T01:11:04;6.93;;;3.70;;
27985;SDS011;15453;53.692;10.168;2023-03-25T01:13:30;8.00;;;3.28;;
27985;SDS011;15453;53.692;10.168;2023-03-25T01:15:56;7.05;;;3.78;;
27985;SDS011;15453;53.692;10.168;2023-03-25T01:18:21;8.23;;;3.70;;
27985;SDS011;15453;53.692;10.168;2023-03-25T01:20:46;9.50;;;4.10;;
27985;SDS011;15453;53.692;10.168;2023-03-25T01:23:12;6.63;;;3.40;;
27985;SDS011;15453;53.692;10.168;2023-03-25T01:25:37;9.27;;;3.85;;
27985;SDS011;15453;53.692;10.168;2023-03-25T01:28:03;7.43;;;4.35;;
27985;SDS011;15453;53.692;10.168;2023-03-25T01:30:29;8.25;;;3.92;;
27985;SDS011;15453;53.692;10.168;2023-03-25T01:32:54;7.93;;;3.88;;
27985;SDS011;15453;53.692;10.168;2023-03-25T01:35:19;8.18;;;3.72;;
27985;SDS011;15453;53.692;10.168;2023-03-25T01:37:45;8.05;;;4.07;;
27985;SDS011;15453;53.692;10.168;2023-03-25T01:40:15;7.85;;;3.75;;
27985;SDS011;15453;53.692;10.168;2023-03-25T01:42:42;9.07;;;4.05;;
27985;SDS011;15453;53.692;10.168;2023-03-25T01:45:13;7.00;;;3.80;;
27985;SDS011;15453;53.692;10.168;2023-03-25T01:47:43;8.50;;;3.58;;
27985;SDS011;15453;53.692;10.168;2023-03-25T01:50:09;7.75;;;3.50;;
27985;SDS011;15453;53.692;10.168;2023-03-25T01:52:38;8.10;;;3.55;;
27985;SDS011;15453;53.692;10.168;2023-03-25T01:55:08;8.07;;;3.90;;
27985;SDS011;15453;53.692;10.168;2023-03-25T01:57:34;5.05;;;3.13;;
27985;SDS011;15453;53.692;10.168;2023-03-25T02:00:01;8.65;;;3.63;;
27985;SDS011;15453;53.692;10.168;2023-03-25T02:02:27;7.75;;;4.13;;
27985;SDS011;15453;53.692;10.168;2023-03-25T02:04:59;12.18;;;4.35;;
27985;SDS011;15453;53.692;10.168;2023-03-25T02:07:30;7.50;;;3.50;;
27985;SDS011;15453;53.692;10.168;2023-03-25T02:10:01;7.93;;;3.80;;
27985;SDS011;15453;53.692;10.168;2023-03-25T02:12:30;9.70;;;3.67;;
27985;SDS011;15453;53.692;10.168;2023-03-25T02:14:56;9.13;;;3.58;;
27985;SDS011;15453;53.692;10.168;2023-03-25T02:17:40;11.02;;;4.40;;
27985;SDS011;15453;53.692;10.168;2023-03-25T02:23:11;9.60;;;4.03;;
27985;SDS011;15453;53.692;10.168;2023-03-25T02:28:41;9.35;;;3.85;;
27985;SDS011;15453;53.692;10.168;2023-03-25T02:39:23;7.45;;;3.25;;
27985;SDS011;15453;53.692;10.168;2023-03-25T02:45:01;9.38;;;4.22;;
27985;SDS011;15453;53.692;10.168;2023-03-25T02:47:34;9.57;;;3.15;;
27985;SDS011;15453;53.692;10.168;2023-03-25T02:50:14;8.10;;;3.28;;
27985;SDS011;15453;53.692;10.168;2023-03-25T02:52:46;5.40;;;3.03;;
27985;SDS011;15453;53.692;10.168;2023-03-25T02:55:16;8.52;;;3.35;;
27985;SDS011;15453;53.692;10.168;2023-03-25T02:57:44;10.35;;;3.70;;
27985;SDS011;15453;53.692;10.168;2023-03-25T03:00:12;6.35;;;3.22;;
27985;SDS011;15453;53.692;10.168;2023-03-25T03:29:20;9.13;;;3.05;;
27985;SDS011;15453;53.692;10.168;2023-03-25T03:31:54;7.32;;;3.28;;
27985;SDS011;15453;53.692;10.168;2023-03-25T03:34:44;9.18;;;2.90;;
27985;SDS011;15453;53.692;10.168;2023-03-25T03:37:14;10.60;;;4.05;;
27985;SDS011;15453;53.692;10.168;2023-03-25T03:39:42;10.05;;;3.50;;
27985;SDS011;15453;53.692;10.168;2023-03-25T03:44:43;7.70;;;3.47;;
27985;SDS011;15453;53.692;10.168;2023-03-25T03:47:14;8.50;;;3.63;;
27985;SDS011;15453;53.692;10.168;2023-03-25T03:49:46;7.93;;;3.55;;
27985;SDS011;15453;53.692;10.168;2023-03-25T03:52:20;7.05;;;3.30;;
27985;SDS011;15453;53.692;10.168;2023-03-25T03:57:28;10.68;;;3.80;;
27985;SDS011;15453;53.692;10.168;2023-03-25T04:00:04;8.00;;;3.20;;
27985;SDS011;15453;53.692;10.168;2023-03-25T04:02:38;6.88;;;3.60;;
27985;SDS011;15453;53.692;10.168;2023-03-25T04:05:07;7.70;;;3.28;;
27985;SDS011;15453;53.692;10.168;2023-03-25T04:07:39;6.60;;;3.25;;
27985;SDS011;15453;53.692;10.168;2023-03-25T04:10:11;6.30;;;2.83;;
27985;SDS011;15453;53.692;10.168;2023-03-25T04:12:48;10.00;;;3.47;;
27985;SDS011;15453;53.692;10.168;2023-03-25T04:15:16;8.02;;;3.53;;
27985;SDS011;15453;53.692;10.168;2023-03-25T04:17:42;8.93;;;3.70;;
27985;SDS011;15453;53.692;10.168;2023-03-25T04:20:09;5.53;;;2.95;;
27985;SDS011;15453;53.692;10.168;2023-03-25T04:22:38;6.95;;;3.47;;
27985;SDS011;15453;53.692;10.168;2023-03-25T04:25:09;5.90;;;2.80;;
27985;SDS011;15453;53.692;10.168;2023-03-25T04:27:34;8.10;;;3.25;;
27985;SDS011;15453;53.692;10.168;2023-03-25T04:30:02;7.18;;;3.20;;
27985;SDS011;15453;53.692;10.168;2023-03-25T04:34:56;5.93;;;2.70;;
27985;SDS011;15453;53.692;10.168;2023-03-25T04:37:25;6.95;;;2.85;;
27985;SDS011;15453;53.692;10.168;2023-03-25T04:39:52;6.50;;;2.88;;
27985;SDS011;15453;53.692;10.168;2023-03-25T04:42:20;5.97;;;2.70;;
27985;SDS011;15453;53.692;10.168;2023-03-25T04:44:49;7.82;;;3.05;;
27985;SDS011;15453;53.692;10.168;2023-03-25T04:47:14;7.32;;;2.85;;
27985;SDS011;15453;53.692;10.168;2023-03-25T04:49:41;8.65;;;2.97;;
27985;SDS011;15453;53.692;10.168;2023-03-25T04:52:09;8.13;;;2.47;;
27985;SDS011;15453;53.692;10.168;2023-03-25T04:54:34;7.75;;;2.33;;
27985;SDS011;15453;53.692;10.168;2023-03-25T04:57:02;6.85;;;2.78;;
27985;SDS011;15453;53.692;10.168;2023-03-25T04:59:27;6.68;;;2.28;;
27985;SDS011;15453;53.692;10.168;2023-03-25T05:01:52;5.63;;;2.30;;
27985;SDS011;15453;53.692;10.168;2023-03-25T05:04:18;6.75;;;1.98;;
27985;SDS011;15453;53.692;10.168;2023-03-25T05:06:44;4.65;;;1.75;;
27985;SDS011;15453;53.692;10.168;2023-03-25T05:09:13;4.35;;;1.80;;
27985;SDS011;15453;53.692;10.168;2023-03-25T05:11:40;6.18;;;1.90;;
27985;SDS011;15453;53.692;10.168;2023-03-25T05:14:07;4.82;;;1.70;;
27985;SDS011;15453;53.692;10.168;2023-03-25T05:16:33;2.70;;;1.35;;
27985;SDS011;15453;53.692;10.168;2023-03-25T05:18:59;2.97;;;1.35;;
27985;SDS011;15453;53.692;10.168;2023-03-25T05:21:27;4.80;;;1.63;;
27985;SDS011;15453;53.692;10.168;2023-03-25T05:23:53;5.00;;;1.67;;
27985;SDS011;15453;53.692;10.168;2023-03-25T05:26:19;3.42;;;1.45;;
27985;SDS011;15453;53.692;10.168;2023-03-25T05:28:44;4.00;;;1.65;;
27985;SDS011;15453;53.692;10.168;2023-03-25T05:31:10;5.93;;;1.90;;
27985;SDS011;15453;53.692;10.168;2023-03-25T05:33:36;3.28;;;1.45;;
27985;SDS011;15453;53.692;10.168;2023-03-25T05:36:09;6.60;;;1.95;;
27985;SDS011;15453;53.692;10.168;2023-03-25T05:38:36;7.97;;;2.50;;
27985;SDS011;15453;53.692;10.168;2023-03-25T05:41:05;4.05;;;2.13;;
27985;SDS011;15453;53.692;10.168;2023-03-25T05:43:34;5.55;;;2.35;;
27985;SDS011;15453;53.692;10.168;2023-03-25T05:45:59;5.15;;;2.30;;
27985;SDS011;15453;53.692;10.168;2023-03-25T05:48:25;7.05;;;2.17;;
27985;SDS011;15453;53.692;10.168;2023-03-25T05:50:51;6.78;;;2.72;;
27985;SDS011;15453;53.692;10.168;2023-03-25T05:53:20;5.85;;;2.78;;
27985;SDS011;15453;53.692;10.168;2023-03-25T05:55:46;6.25;;;2.20;;
27985;SDS011;15453;53.692;10.168;2023-03-25T05:58:14;6.68;;;2.42;;
27985;SDS011;15453;53.692;10.168;2023-03-25T06:00:41;8.77;;;2.60;;
27985;SDS011;15453;53.692;10.168;2023-03-25T06:03:07;5.70;;;2.53;;
27985;SDS011;15453;53.692;10.168;2023-03-25T06:05:32;5.15;;;2.53;;
27985;SDS011;15453;53.692;10.168;2023-03-25T06:07:58;5.63;;;2.38;;
27985;SDS011;15453;53.692;10.168;2023-03-25T06:10:23;5.70;;;2.30;;
27985;SDS011;15453;53.692;10.168;2023-03-25T06:12:49;7.45;;;2.40;;
27985;SDS011;15453;53.692;10.168;2023-03-25T06:15:16;4.93;;;1.90;;
27985;SDS011;15453;53.692;10.168;2023-03-25T06:17:42;6.50;;;2.47;;
27985;SDS011;15453;53.692;10.168;2023-03-25T06:20:10;5.70;;;2.25;;
27985;SDS011;15453;53.692;10.168;2023-03-25T06:22:40;7.60;;;2.25;;
27985;SDS011;15453;53.692;10.168;2023-03-25T06:25:07;3.13;;;1.67;;
27985;SDS011;15453;53.692;10.168;2023-03-25T06:27:34;9.50;;;2.25;;
27985;SDS011;15453;53.692;10.168;2023-03-25T06:30:04;7.90;;;2.53;;
27985;SDS011;15453;53.692;10.168;2023-03-25T06:32:33;5.97;;;2.25;;
27985;SDS011;15453;53.692;10.168;2023-03-25T06:34:59;5.43;;;2.30;;
27985;SDS011;15453;53.692;10.168;2023-03-25T06:37:24;4.07;;;2.10;;
27985;SDS011;15453;53.692;10.168;2023-03-25T06:39:50;6.55;;;2.60;;
27985;SDS011;15453;53.692;10.168;2023-03-25T06:42:20;7.15;;;2.38;;
27985;SDS011;15453;53.692;10.168;2023-03-25T06:44:48;9.80;;;2.60;;
27985;SDS011;15453;53.692;10.168;2023-03-25T06:47:14;8.18;;;2.83;;
27985;SDS011;15453;53.692;10.168;2023-03-25T06:49:39;4.53;;;2.60;;
27985;SDS011;15453;53.692;10.168;2023-03-25T06:52:05;7.47;;;2.65;;
27985;SDS011;15453;53.692;10.168;2023-03-25T06:54:30;7.95;;;2.47;;
27985;SDS011;15453;53.692;10.168;2023-03-25T06:56:55;8.60;;;2.67;;
27985;SDS011;15453;53.692;10.168;2023-03-25T06:59:21;10.27;;;2.60;;
27985;SDS011;15453;53.692;10.168;2023-03-25T07:01:46;11.48;;;2.83;;
27985;SDS011;15453;53.692;10.168;2023-03-25T07:04:11;8.98;;;3.30;;
27985;SDS011;15453;53.692;10.168;2023-03-25T07:06:36;7.05;;;2.45;;
27985;SDS011;15453;53.692;10.168;2023-03-25T07:09:02;9.45;;;3.05;;
27985;SDS011;15453;53.692;10.168;2023-03-25T07:11:28;7.90;;;2.70;;
27985;SDS011;15453;53.692;10.168;2023-03-25T07:13:54;9.35;;;3.40;;
27985;SDS011;15453;53.692;10.168;2023-03-25T07:16:20;10.60;;;3.22;;
27985;SDS011;15453;53.692;10.168;2023-03-25T07:18:46;9.02;;;2.70;;
27985;SDS011;15453;53.692;10.168;2023-03-25T07:21:12;8.80;;;3.00;;
27985;SDS011;15453;53.692;10.168;2023-03-25T07:23:37;8.85;;;2.67;;
27985;SDS011;15453;53.692;10.168;2023-03-25T07:26:02;8.10;;;3.00;;
27985;SDS011;15453;53.692;10.168;2023-03-25T07:28:27;10.80;;;3.47;;
27985;SDS011;15453;53.692;10.168;2023-03-25T07:30:53;6.97;;;2.55;;
27985;SDS011;15453;53.692;10.168;2023-03-25T07:33:18;10.63;;;2.85;;
27985;SDS011;15453;53.692;10.168;2023-03-25T07:35:43;9.90;;;3.40;;
27985;SDS011;15453;53.692;10.168;2023-03-25T07:38:09;7.35;;;3.13;;
27985;SDS011;15453;53.692;10.168;2023-03-25T07:40:34;10.98;;;3.42;;
27985;SDS011;15453;53.692;10.168;2023-03-25T07:42:59;7.45;;;3.30;;
27985;SDS011;15453;53.692;10.168;2023-03-25T07:45:24;6.78;;;2.95;;
27985;SDS011;15453;53.692;10.168;2023-03-25T07:47:50;7.93;;;3.00;;
27985;SDS011;15453;53.692;10.168;2023-03-25T07:50:17;10.50;;;3.33;;
27985;SDS011;15453;53.692;10.168;2023-03-25T07:52:43;8.52;;;3.22;;
27985;SDS011;15453;53.692;10.168;2023-03-25T07:55:09;4.90;;;2.50;;
27985;SDS011;15453;53.692;10.168;2023-03-25T07:57:34;7.28;;;2.53;;
27985;SDS011;15453;53.692;10.168;2023-03-25T07:59:59;6.80;;;2.70;;
27985;SDS011;15453;53.692;10.168;2023-03-25T08:02:24;5.25;;;2.50;;
27985;SDS011;15453;53.692;10.168;2023-03-25T08:04:50;9.02;;;3.00;;
27985;SDS011;15453;53.692;10.168;2023-03-25T08:07:18;8.05;;;2.80;;
27985;SDS011;15453;53.692;10.168;2023-03-25T08:09:43;14.30;;;3.78;;
27985;SDS011;15453;53.692;10.168;2023-03-25T08:12:08;8.90;;;3.00;;
27985;SDS011;15453;53.692;10.168;2023-03-25T08:14:34;11.82;;;3.50;;
27985;SDS011;15453;53.692;10.168;2023-03-25T08:16:59;9.93;;;2.92;;
27985;SDS011;15453;53.692;10.168;2023-03-25T08:19:25;9.80;;;3.10;;
27985;SDS011;15453;53.692;10.168;2023-03-25T08:21:50;7.78;;;2.50;;
27985;SDS011;15453;53.692;10.168;2023-03-25T08:24:16;8.80;;;2.50;;
27985;SDS011;15453;53.692;10.168;2023-03-25T08:26:41;4.93;;;2.17;;
27985;SDS011;15453;53.692;10.168;2023-03-25T08:29:07;9.52;;;2.53;;
27985;SDS011;15453;53.692;10.168;2023-03-25T08:31:34;6.85;;;2.22;;
27985;SDS011;15453;53.692;10.168;2023-03-25T08:34:03;6.45;;;2.50;;
27985;SDS011;15453;53.692;10.168;2023-03-25T08:36:29;10.20;;;3.85;;
27985;SDS011;15453;53.692;10.168;2023-03-25T08:38:55;9.07;;;3.28;;
27985;SDS011;15453;53.692;10.168;2023-03-25T08:41:20;6.95;;;2.80;;
27985;SDS011;15453;53.692;10.168;2023-03-25T08:43:45;5.05;;;2.30;;
27985;SDS011;15453;53.692;10.168;2023-03-25T08:46:11;7.72;;;2.70;;
27985;SDS011;15453;53.692;10.168;2023-03-25T08:48:36;7.22;;;2.50;;
27985;SDS011;15453;53.692;10.168;2023-03-25T08:51:02;6.25;;;2.40;;
27985;SDS011;15453;53.692;10.168;2023-03-25T08:53:28;8.07;;;2.45;;
27985;SDS011;15453;53.692;10.168;2023-03-25T08:55:54;5.55;;;2.20;;
27985;SDS011;15453;53.692;10.168;2023-03-25T08:58:21;8.02;;;2.35;;
27985;SDS011;15453;53.692;10.168;2023-03-25T09:00:48;8.63;;;3.65;;
27985;SDS011;15453;53.692;10.168;2023-03-25T09:03:18;12.07;;;3.85;;
27985;SDS011;15453;53.692;10.168;2023-03-25T09:05:43;10.80;;;3.05;;
27985;SDS011;15453;53.692;10.168;2023-03-25T09:08:08;4.82;;;2.20;;
27985;SDS011;15453;53.692;10.168;2023-03-25T09:10:34;7.03;;;2.15;;
27985;SDS011;15453;53.692;10.168;2023-03-25T09:12:59;6.95;;;2.30;;
27985;SDS011;15453;53.692;10.168;2023-03-25T09:15:25;7.00;;;2.10;;
27985;SDS011;15453;53.692;10.168;2023-03-25T09:17:50;6.03;;;1.80;;
27985;SDS011;15453;53.692;10.168;2023-03-25T09:20:15;7.57;;;2.10;;
27985;SDS011;15453;53.692;10.168;2023-03-25T09:22:42;9.93;;;2.20;;
27985;SDS011;15453;53.692;10.168;2023-03-25T09:25:08;6.72;;;2.00;;
27985;SDS011;15453;53.692;10.168;2023-03-25T09:27:34;4.55;;;2.05;;
27985;SDS011;15453;53.692;10.168;2023-03-25T09:29:59;5.57;;;1.63;;
27985;SDS011;15453;53.692;10.168;2023-03-25T09:32:25;4.80;;;1.73;;
27985;SDS011;15453;53.692;10.168;2023-03-25T09:34:50;6.35;;;2.00;;
27985;SDS011;15453;53.692;10.168;2023-03-25T09:37:16;3.33;;;1.05;;
27985;SDS011;15453;53.692;10.168;2023-03-25T09:39:41;4.03;;;1.25;;
27985;SDS011;15453;53.692;10.168;2023-03-25T09:42:10;4.40;;;1.38;;
27985;SDS011;15453;53.692;10.168;2023-03-25T09:47:39;4.10;;;1.10;;
27985;SDS011;15453;53.692;10.168;2023-03-25T09:50:11;3.72;;;1.10;;
27985;SDS011;15453;53.692;10.168;2023-03-25T09:52:46;4.50;;;1.30;;
27985;SDS011;15453;53.692;10.168;2023-03-25T09:55:25;5.28;;;1.33;;
27985;SDS011;15453;53.692;10.168;2023-03-25T09:57:56;4.25;;;1.13;;
27985;SDS011;15453;53.692;10.168;2023-03-25T10:00:26;4.60;;;1.10;;
27985;SDS011;15453;53.692;10.168;2023-03-25T10:03:06;3.38;;;1.10;;
27985;SDS011;15453;53.692;10.168;2023-03-25T10:11:18;4.68;;;1.00;;
27985;SDS011;15453;53.692;10.168;2023-03-25T10:13:59;3.67;;;1.30;;
27985;SDS011;15453;53.692;10.168;2023-03-25T10:19:24;3.85;;;1.25;;
27985;SDS011;15453;53.692;10.168;2023-03-25T10:22:08;5.18;;;1.70;;
27985;SDS011;15453;53.692;10.168;2023-03-25T10:24:59;6.97;;;1.42;;
27985;SDS011;15453;53.692;10.168;2023-03-25T10:27:42;4.97;;;1.40;;
27985;SDS011;15453;53.692;10.168;2023-03-25T10:32:57;4.15;;;1.23;;
27985;SDS011;15453;53.692;10.168;2023-03-25T10:37:58;3.83;;;1.98;;
27985;SDS011;15453;53.692;10.168;2023-03-25T10:40:34;5.50;;;1.27;;
27985;SDS011;15453;53.692;10.168;2023-03-25T10:45:38;13.20;;;2.25;;
27985;SDS011;15453;53.692;10.168;2023-03-25T10:48:09;6.85;;;1.88;;
27985;SDS011;15453;53.692;10.168;2023-03-25T10:50:38;4.75;;;1.38;;
27985;SDS011;15453;53.692;10.168;2023-03-25T10:53:05;3.28;;;1.52;;
27985;SDS011;15453;53.692;10.168;2023-03-25T10:55:31;6.47;;;1.60;;
27985;SDS011;15453;53.692;10.168;2023-03-25T10:57:59;6.68;;;2.05;;
27985;SDS011;15453;53.692;10.168;2023-03-25T11:00:25;5.68;;;1.45;;
27985;SDS011;15453;53.692;10.168;2023-03-25T11:02:51;5.32;;;1.45;;
27985;SDS011;15453;53.692;10.168;2023-03-25T11:05:20;6.55;;;1.58;;
27985;SDS011;15453;53.692;10.168;2023-03-25T11:07:49;8.20;;;2.20;;
27985;SDS011;15453;53.692;10.168;2023-03-25T11:12:45;7.88;;;2.25;;
27985;SDS011;15453;53.692;10.168;2023-03-25T11:15:20;4.30;;;1.45;;
27985;SDS011;15453;53.692;10.168;2023-03-25T11:17:47;10.20;;;2.10;;
27985;SDS011;15453;53.692;10.168;2023-03-25T11:20:21;7.80;;;2.58;;
27985;SDS011;15453;53.692;10.168;2023-03-25T11:22:52;6.57;;;1.92;;
27985;SDS011;15453;53.692;10.168;2023-03-25T11:25:22;10.73;;;2.67;;
27985;SDS011;15453;53.692;10.168;2023-03-25T11:27:51;7.68;;;1.65;;
27985;SDS011;15453;53.692;10.168;2023-03-25T11:30:21;8.73;;;2.20;;
27985;SDS011;15453;53.692;10.168;2023-03-25T11:38:15;4.05;;;1.60;;
27985;SDS011;15453;53.692;10.168;2023-03-25T11:40:49;3.92;;;1.00;;
27985;SDS011;15453;53.692;10.168;2023-03-25T11:43:21;3.08;;;0.80;;
27985;SDS011;15453;53.692;10.168;2023-03-25T11:45:48;2.03;;;0.52;;
27985;SDS011;15453;53.692;10.168;2023-03-25T11:48:32;1.63;;;0.70;;
27985;SDS011;15453;53.692;10.168;2023-03-25T11:51:02;2.05;;;0.60;;
27985;SDS011;15453;53.692;10.168;2023-03-25T11:53:31;1.65;;;0.60;;
27985;SDS011;15453;53.692;10.168;2023-03-25T11:56:03;6.43;;;0.73;;
27985;SDS011;15453;53.692;10.168;2023-03-25T11:58:33;4.95;;;0.70;;
27985;SDS011;15453;53.692;10.168;2023-03-25T12:01:05;3.10;;;0.80;;
27985;SDS011;15453;53.692;10.168;2023-03-25T12:03:41;1.73;;;0.70;;
27985;SDS011;15453;53.692;10.168;2023-03-25T12:08:43;5.78;;;1.33;;
27985;SDS011;15453;53.692;10.168;2023-03-25T12:18:54;3.58;;;1.17;;
27985;SDS011;15453;53.692;10.168;2023-03-25T12:30:42;4.22;;;1.10;;
27985;SDS011;15453;53.692;10.168;2023-03-25T12:38:55;6.60;;;1.30;;
27985;SDS011;15453;53.692;10.168;2023-03-25T12:44:32;5.95;;;1.27;;
27985;SDS011;15453;53.692;10.168;2023-03-25T12:52:39;4.18;;;1.38;;
27985;SDS011;15453;53.692;10.168;2023-03-25T13:01:11;5.53;;;1.73;;
27985;SDS011;15453;53.692;10.168;2023-03-25T13:03:50;4.57;;;1.10;;
27985;SDS011;15453;53.692;10.168;2023-03-25T13:09:05;4.20;;;1.35;;
27985;SDS011;15453;53.692;10.168;2023-03-25T13:11:49;3.75;;;1.40;;
27985;SDS011;15453;53.692;10.168;2023-03-25T13:14:29;4.95;;;1.35;;
27985;SDS011;15453;53.692;10.168;2023-03-25T13:17:00;3.78;;;1.52;;
27985;SDS011;15453;53.692;10.168;2023-03-25T13:19:30;3.03;;;1.00;;
27985;SDS011;15453;53.692;10.168;2023-03-25T13:22:04;2.67;;;1.15;;
27985;SDS011;15453;53.692;10.168;2023-03-25T13:24:38;5.32;;;1.23;;
27985;SDS011;15453;53.692;10.168;2023-03-25T13:27:15;3.75;;;0.77;;
27985;SDS011;15453;53.692;10.168;2023-03-25T13:29:42;4.53;;;1.42;;
27985;SDS011;15453;53.692;10.168;2023-03-25T13:32:16;2.92;;;1.10;;
27985;SDS011;15453;53.692;10.168;2023-03-25T13:34:51;2.47;;;0.88;;
27985;SDS011;15453;53.692;10.168;2023-03-25T13:37:25;3.30;;;1.00;;
27985;SDS011;15453;53.692;10.168;2023-03-25T13:45:20;3.88;;;1.08;;
27985;SDS011;15453;53.692;10.168;2023-03-25T13:47:57;4.70;;;1.13;;
27985;SDS011;15453;53.692;10.168;2023-03-25T13:50:31;4.20;;;1.13;;
27985;SDS011;15453;53.692;10.168;2023-03-25T13:52:59;6.50;;;1.25;;
27985;SDS011;15453;53.692;10.168;2023-03-25T13:55:30;2.40;;;1.10;;
27985;SDS011;15453;53.692;10.168;2023-03-25T13:58:17;3.17;;;0.85;;
27985;SDS011;15453;53.692;10.168;2023-03-25T14:03:30;4.57;;;1.00;;
27985;SDS011;15453;53.692;10.168;2023-03-25T14:06:52;4.95;;;1.10;;
27985;SDS011;15453;53.692;10.168;2023-03-25T14:12:06;2.95;;;0.68;;
27985;SDS011;15453;53.692;10.168;2023-03-25T14:14:46;2.97;;;0.90;;
27985;SDS011;15453;53.692;10.168;2023-03-25T14:17:17;2.85;;;0.95;;
27985;SDS011;15453;53.692;10.168;2023-03-25T14:19:46;3.55;;;0.90;;
27985;SDS011;15453;53.692;10.168;2023-03-25T14:22:17;2.40;;;0.98;;
27985;SDS011;15453;53.692;10.168;2023-03-25T14:24:51;3.40;;;1.10;;
27985;SDS011;15453;53.692;10.168;2023-03-25T14:27:24;1.85;;;0.70;;
27985;SDS011;15453;53.692;10.168;2023-03-25T14:34:48;2.40;;;0.77;;
27985;SDS011;15453;53.692;10.168;2023-03-25T14:37:16;3.80;;;0.77;;
27985;SDS011;15453;53.692;10.168;2023-03-25T14:39:50;2.63;;;0.70;;
27985;SDS011;15453;53.692;10.168;2023-03-25T14:42:28;2.75;;;0.93;;
27985;SDS011;15453;53.692;10.168;2023-03-25T14:45:32;1.90;;;0.77;;
27985;SDS011;15453;53.692;10.168;2023-03-25T14:47:57;3.35;;;0.95;;
27985;SDS011;15453;53.692;10.168;2023-03-25T14:52:59;2.47;;;0.70;;
27985;SDS011;15453;53.692;10.168;2023-03-25T14:55:33;2.33;;;0.82;;
27985;SDS011;15453;53.692;10.168;2023-03-25T14:58:18;1.85;;;0.75;;
27985;SDS011;15453;53.692;10.168;2023-03-25T15:00:51;2.97;;;0.90;;
27985;SDS011;15453;53.692;10.168;2023-03-25T15:03:19;3.55;;;1.40;;
27985;SDS011;15453;53.692;10.168;2023-03-25T15:05:55;5.45;;;1.00;;
27985;SDS011;15453;53.692;10.168;2023-03-25T15:08:39;3.42;;;0.85;;
27985;SDS011;15453;53.692;10.168;2023-03-25T15:11:08;2.78;;;1.05;;
27985;SDS011;15453;53.692;10.168;2023-03-25T15:13:46;2.92;;;0.93;;
27985;SDS011;15453;53.692;10.168;2023-03-25T15:16:33;4.32;;;0.98;;
27985;SDS011;15453;53.692;10.168;2023-03-25T15:19:01;3.97;;;1.27;;
27985;SDS011;15453;53.692;10.168;2023-03-25T15:21:33;3.80;;;1.08;;
27985;SDS011;15453;53.692;10.168;2023-03-25T15:24:28;4.93;;;1.35;;
27985;SDS011;15453;53.692;10.168;2023-03-25T15:26:56;5.60;;;1.38;;
27985;SDS011;15453;53.692;10.168;2023-03-25T15:35:06;2.40;;;1.17;;
27985;SDS011;15453;53.692;10.168;2023-03-25T15:40:53;3.00;;;1.20;;
27985;SDS011;15453;53.692;10.168;2023-03-25T15:46:56;4.65;;;1.30;;
27985;SDS011;15453;53.692;10.168;2023-03-25T15:52:39;3.63;;;0.90;;
27985;SDS011;15453;53.692;10.168;2023-03-25T15:55:30;4.35;;;1.30;;
27985;SDS011;15453;53.692;10.168;2023-03-25T15:58:25;4.85;;;1.38;;
27985;SDS011;15453;53.692;10.168;2023-03-25T16:01:20;4.68;;;1.00;;
27985;SDS011;15453;53.692;10.168;2023-03-25T16:03:57;5.95;;;1.40;;
27985;SDS011;15453;53.692;10.168;2023-03-25T16:06:26;5.10;;;1.52;;
27985;SDS011;15453;53.692;10.168;2023-03-25T16:08:52;6.55;;;1.65;;
27985;SDS011;15453;53.692;10.168;2023-03-25T16:13:46;4.70;;;1.50;;
27985;SDS011;15453;53.692;10.168;2023-03-25T16:16:24;4.22;;;1.10;;
27985;SDS011;15453;53.692;10.168;2023-03-25T16:18:50;3.78;;;1.20;;
27985;SDS011;15453;53.692;10.168;2023-03-25T16:21:18;4.43;;;1.05;;
27985;SDS011;15453;53.692;10.168;2023-03-25T16:23:43;3.38;;;0.90;;
27985;SDS011;15453;53.692;10.168;2023-03-25T16:26:10;4.35;;;1.13;;
27985;SDS011;15453;53.692;10.168;2023-03-25T16:28:40;2.78;;;0.95;;
27985;SDS011;15453;53.692;10.168;2023-03-25T16:31:26;4.03;;;1.30;;
27985;SDS011;15453;53.692;10.168;2023-03-25T16:33:57;3.22;;;1.10;;
27985;SDS011;15453;53.692;10.168;2023-03-25T16:36:22;3.45;;;1.08;;
27985;SDS011;15453;53.692;10.168;2023-03-25T16:38:48;6.30;;;1.45;;
27985;SDS011;15453;53.692;10.168;2023-03-25T16:41:13;7.57;;;2.00;;
27985;SDS011;15453;53.692;10.168;2023-03-25T16:43:39;6.32;;;1.40;;
27985;SDS011;15453;53.692;10.168;2023-03-25T16:46:06;1.90;;;0.80;;
27985;SDS011;15453;53.692;10.168;2023-03-25T16:48:34;3.60;;;0.95;;
27985;SDS011;15453;53.692;10.168;2023-03-25T16:51:07;3.30;;;1.17;;
27985;SDS011;15453;53.692;10.168;2023-03-25T16:53:36;3.10;;;0.80;;
27985;SDS011;15453;53.692;10.168;2023-03-25T16:58:32;2.80;;;1.08;;
27985;SDS011;15453;53.692;10.168;2023-03-25T17:00:58;3.28;;;1.08;;
27985;SDS011;15453;53.692;10.168;2023-03-25T17:03:44;1.73;;;0.90;;
27985;SDS011;15453;53.692;10.168;2023-03-25T17:08:52;1.67;;;0.57;;
27985;SDS011;15453;53.692;10.168;2023-03-25T17:11:20;1.27;;;0.63;;
27985;SDS011;15453;53.692;10.168;2023-03-25T17:13:48;2.53;;;0.73;;
27985;SDS011;15453;53.692;10.168;2023-03-25T17:16:19;1.80;;;0.90;;
27985;SDS011;15453;53.692;10.168;2023-03-25T17:18:46;2.10;;;0.90;;
27985;SDS011;15453;53.692;10.168;2023-03-25T17:21:19;3.17;;;0.85;;
27985;SDS011;15453;53.692;10.168;2023-03-25T17:23:50;2.13;;;0.77;;
27985;SDS011;15453;53.692;10.168;2023-03-25T17:26:16;1.73;;;0.70;;
27985;SDS011;15453;53.692;10.168;2023-03-25T17:31:16;2.25;;;0.95;;
27985;SDS011;15453;53.692;10.168;2023-03-25T17:33:47;3.30;;;1.00;;